Time;durP1;ratioP1;P1;durP2;ratioP2;P2;SDS_P1;SDS_P2;PMS_P1;PMS_P2;Temp;Humidity;BMP_temperature;BMP_pressure;BME280_temperature;BME280_humidity;BME280_pressure;Samples;Min_cycle;Max_cycle;Signal;HPM_P1;HPM_P2
2021/04/16 00:02:16;;;;;;;13.20;12.10;;;0.90;99.90;;;;;;4981721;28;20437;-75
2021/04/16 00:04:42;;;;;;;15.23;12.30;;;0.90;99.90;;;;;;4979622;28;20466;-75
2021/04/16 00:07:09;;;;;;;13.40;12.07;;;0.90;99.90;;;;;;4980920;28;20950;-75
2021/04/16 00:09:36;;;;;;;13.07;11.73;;;0.90;99.90;;;;;;4990104;28;20492;-74
2021/04/16 00:12:03;;;;;;;12.70;11.43;;;0.90;99.90;;;;;;4980138;28;20859;-74
2021/04/16 00:14:29;;;;;;;12.80;11.60;;;0.90;99.90;;;;;;4997236;28;20461;-75
2021/04/16 00:16:55;;;;;;;14.27;12.53;;;0.80;99.90;;;;;;4978560;28;20808;-73
2021/04/16 00:19:22;;;;;;;13.50;12.10;;;0.80;99.90;;;;;;4981574;28;20441;-74
2021/04/16 00:21:48;;;;;;;13.47;12.13;;;0.80;99.90;;;;;;4994273;28;20591;-75
2021/04/16 00:24:15;;;;;;;14.77;12.60;;;0.80;99.90;;;;;;4995590;28;20481;-74
2021/04/16 00:26:43;;;;;;;13.97;12.13;;;0.80;99.90;;;;;;4986980;28;20977;-74
2021/04/16 00:29:10;;;;;;;13.13;11.97;;;0.70;99.90;;;;;;4994648;28;20474;-74
2021/04/16 00:31:37;;;;;;;13.10;11.90;;;0.80;99.90;;;;;;4998184;28;20464;-75
2021/04/16 00:34:04;;;;;;;13.50;12.23;;;0.70;99.90;;;;;;5016691;22;20494;-77
2021/04/16 00:36:31;;;;;;;13.03;11.73;;;0.60;99.90;;;;;;5033247;28;20469;-77
2021/04/16 00:38:58;;;;;;;13.93;12.43;;;0.60;99.90;;;;;;5036929;28;20434;-77
2021/04/16 00:41:28;;;;;;;12.60;11.50;;;0.60;99.90;;;;;;5046579;28;20462;-77
2021/04/16 00:43:55;;;;;;;13.20;11.80;;;0.60;99.90;;;;;;5040103;28;20524;-77
2021/04/16 00:46:28;;;;;;;11.63;10.73;;;0.60;99.90;;;;;;5033298;28;20459;-77
2021/04/16 00:48:57;;;;;;;13.13;11.90;;;0.60;99.90;;;;;;5037588;28;21056;-79
2021/04/16 00:51:31;;;;;;;12.80;11.60;;;0.50;99.90;;;;;;5037271;28;20797;-78
2021/04/16 00:54:00;;;;;;;13.97;12.47;;;0.40;99.90;;;;;;5035032;28;20523;-78
2021/04/16 00:56:28;;;;;;;13.33;12.00;;;0.40;99.90;;;;;;5044275;28;20480;-77
2021/04/16 00:58:54;;;;;;;13.43;12.20;;;0.30;99.90;;;;;;5033465;28;20435;-77
2021/04/16 01:01:23;;;;;;;12.80;11.60;;;0.40;99.90;;;;;;5036223;28;20514;-77
2021/04/16 01:03:49;;;;;;;12.47;11.27;;;0.40;99.90;;;;;;5032052;28;20553;-77
2021/04/16 01:06:15;;;;;;;12.67;11.47;;;0.40;99.90;;;;;;5037552;28;20459;-78
2021/04/16 01:08:42;;;;;;;13.50;12.10;;;0.40;99.90;;;;;;5031849;28;20470;-79
2021/04/16 01:11:08;;;;;;;12.47;11.30;;;0.40;99.90;;;;;;5031778;28;20451;-78
2021/04/16 01:13:38;;;;;;;13.30;12.00;;;0.40;99.90;;;;;;5040260;28;20481;-78
2021/04/16 01:16:09;;;;;;;11.87;10.80;;;0.40;99.90;;;;;;5036633;28;20485;-78
2021/04/16 01:18:37;;;;;;;13.50;12.10;;;0.40;99.90;;;;;;5036647;28;20528;-77
2021/04/16 01:21:07;;;;;;;12.50;11.33;;;0.40;99.90;;;;;;5033256;28;20433;-78
2021/04/16 01:23:43;;;;;;;12.13;11.03;;;0.40;99.90;;;;;;5034650;28;20830;-77
2021/04/16 01:26:13;;;;;;;12.87;11.57;;;0.40;99.90;;;;;;5031452;28;21038;-78
2021/04/16 01:28:39;;;;;;;12.90;11.50;;;0.40;99.90;;;;;;5030421;28;20479;-79
2021/04/16 01:31:09;;;;;;;11.70;10.67;;;0.40;99.90;;;;;;5031413;28;20962;-77
2021/04/16 01:33:37;;;;;;;12.53;11.37;;;0.40;99.90;;;;;;5031243;28;20455;-78
2021/04/16 01:36:05;;;;;;;13.20;11.90;;;0.40;99.90;;;;;;5031535;28;20447;-77
2021/04/16 01:38:33;;;;;;;13.33;11.90;;;0.50;99.90;;;;;;5031031;28;20439;-77
2021/04/16 01:41:00;;;;;;;12.40;11.17;;;0.50;99.90;;;;;;5039023;28;20450;-77
2021/04/16 01:43:30;;;;;;;13.30;12.17;;;0.50;99.90;;;;;;5034714;28;20461;-78
2021/04/16 01:46:01;;;;;;;12.53;11.43;;;0.50;99.90;;;;;;5031047;28;20439;-77
2021/04/16 01:48:35;;;;;;;13.23;12.03;;;0.50;99.90;;;;;;5030752;28;20470;-79
2021/04/16 01:51:02;;;;;;;12.00;10.93;;;0.50;99.90;;;;;;5029651;28;20810;-78
2021/04/16 01:53:28;;;;;;;15.37;12.00;;;0.50;99.90;;;;;;5030733;28;20455;-78
2021/04/16 01:55:55;;;;;;;14.40;12.13;;;0.50;99.90;;;;;;5032041;28;20434;-77
2021/04/16 01:58:21;;;;;;;12.67;11.37;;;0.50;99.90;;;;;;5030761;28;20447;-77
2021/04/16 02:00:49;;;;;;;12.23;11.13;;;0.40;99.90;;;;;;5031989;28;20860;-77
2021/04/16 02:03:15;;;;;;;12.50;11.27;;;0.40;99.90;;;;;;5039432;28;20442;-77
2021/04/16 02:05:41;;;;;;;12.73;11.40;;;0.40;99.90;;;;;;5038425;28;20469;-78
2021/04/16 02:08:08;;;;;;;12.67;11.43;;;0.40;99.90;;;;;;5034202;28;20454;-77
2021/04/16 02:10:34;;;;;;;11.93;10.93;;;0.30;99.90;;;;;;5031793;28;20439;-77
2021/04/16 02:13:01;;;;;;;12.93;11.73;;;0.30;99.90;;;;;;5036231;28;21005;-78
2021/04/16 02:15:27;;;;;;;12.77;11.47;;;0.30;99.90;;;;;;5035887;28;20849;-77
2021/04/16 02:17:54;;;;;;;13.20;12.10;;;0.20;99.90;;;;;;5031343;28;20831;-76
2021/04/16 02:20:23;;;;;;;13.47;12.27;;;0.20;99.90;;;;;;5037374;28;20930;-77
2021/04/16 02:22:49;;;;;;;11.80;10.87;;;0.30;99.90;;;;;;5032892;28;20773;-77
2021/04/16 02:25:16;;;;;;;13.03;11.87;;;0.30;99.90;;;;;;5030368;28;20478;-77
2021/04/16 02:27:43;;;;;;;12.57;11.20;;;0.30;99.90;;;;;;5031515;28;20485;-78
2021/04/16 02:30:12;;;;;;;11.43;10.50;;;0.30;99.90;;;;;;5030289;28;20467;-77
2021/04/16 02:32:39;;;;;;;13.30;12.10;;;0.30;99.90;;;;;;5036419;28;20493;-78
2021/04/16 02:35:08;;;;;;;12.57;11.07;;;0.30;99.90;;;;;;5041715;28;20489;-77
2021/04/16 02:37:37;;;;;;;12.53;11.43;;;0.20;99.90;;;;;;5040078;28;20449;-78
2021/04/16 02:40:04;;;;;;;12.63;11.50;;;0.20;99.90;;;;;;5033181;28;20449;-76
2021/04/16 02:42:31;;;;;;;12.83;11.73;;;0.20;99.90;;;;;;5035887;28;20489;-77
2021/04/16 02:44:57;;;;;;;13.53;11.90;;;0.10;99.90;;;;;;5043011;28;20893;-77
2021/04/16 02:47:23;;;;;;;12.07;11.07;;;0.10;99.90;;;;;;5028033;28;20439;-77
2021/04/16 02:49:50;;;;;;;12.70;11.60;;;0.10;99.90;;;;;;5038356;28;20532;-78
2021/04/16 02:52:17;;;;;;;14.03;12.63;;;0.10;99.90;;;;;;5039478;28;20442;-77
2021/04/16 02:54:44;;;;;;;13.17;11.87;;;0.00;99.90;;;;;;5038621;28;20763;-78
2021/04/16 02:57:10;;;;;;;14.23;12.80;;;0.00;99.90;;;;;;5035576;28;20450;-76
2021/04/16 02:59:36;;;;;;;13.80;12.37;;;-0.10;99.90;;;;;;5037966;28;20446;-78
2021/04/16 03:02:04;;;;;;;13.67;12.33;;;-0.10;99.90;;;;;;5028111;28;20960;-77
2021/04/16 03:04:30;;;;;;;12.47;11.37;;;-0.10;99.90;;;;;;5027018;28;21040;-76
2021/04/16 03:06:56;;;;;;;13.10;11.90;;;-0.10;99.90;;;;;;5024633;28;20438;-77
2021/04/16 03:09:23;;;;;;;13.57;12.30;;;-0.20;99.90;;;;;;5024599;28;20482;-77
2021/04/16 03:11:50;;;;;;;13.50;12.10;;;-0.20;99.90;;;;;;5025376;28;20434;-78
2021/04/16 03:14:17;;;;;;;14.10;12.70;;;-0.20;99.90;;;;;;5027280;28;20474;-78
2021/04/16 03:16:43;;;;;;;13.40;12.07;;;-0.20;99.90;;;;;;5023320;28;20463;-77
2021/04/16 03:19:11;;;;;;;13.33;12.10;;;-0.20;99.90;;;;;;5033685;28;20447;-77
2021/04/16 03:21:38;;;;;;;13.90;12.50;;;-0.20;99.90;;;;;;5026108;28;20451;-77
2021/04/16 03:24:06;;;;;;;13.43;12.13;;;-0.20;99.90;;;;;;5031397;28;20508;-73
2021/04/16 03:26:34;;;;;;;13.60;12.33;;;-0.30;99.90;;;;;;5029757;28;20446;-78
2021/04/16 03:29:02;;;;;;;13.47;12.17;;;-0.30;99.90;;;;;;5028987;28;20477;-78
2021/04/16 03:31:28;;;;;;;14.00;12.60;;;-0.30;99.90;;;;;;5028371;28;20442;-75
2021/04/16 03:33:56;;;;;;;13.83;12.63;;;-0.20;99.90;;;;;;5027222;28;20474;-77
2021/04/16 03:36:22;;;;;;;13.23;12.00;;;-0.30;99.90;;;;;;5039634;28;20434;-75
2021/04/16 03:38:49;;;;;;;13.30;12.10;;;-0.20;99.90;;;;;;5030121;28;20496;-77
2021/04/16 03:41:16;;;;;;;13.17;12.00;;;-0.20;99.90;;;;;;5036138;28;20966;-76
2021/04/16 03:43:44;;;;;;;13.00;11.80;;;-0.20;99.90;;;;;;5030133;28;20470;-77
2021/04/16 03:46:12;;;;;;;12.53;11.33;;;-0.20;99.90;;;;;;5035761;28;20438;-76
2021/04/16 03:48:38;;;;;;;13.87;12.50;;;-0.20;99.90;;;;;;5037246;28;20467;-78
2021/04/16 03:51:07;;;;;;;13.23;12.03;;;-0.20;99.90;;;;;;5041650;28;20443;-79
2021/04/16 03:53:35;;;;;;;12.43;11.33;;;-0.20;99.90;;;;;;5036654;28;20537;-78
2021/04/16 03:56:01;;;;;;;13.37;12.00;;;-0.30;99.90;;;;;;5040878;28;20469;-77
2021/04/16 03:58:28;;;;;;;12.10;11.00;;;-0.30;99.90;;;;;;5036181;28;20455;-77
2021/04/16 04:00:55;;;;;;;12.43;11.33;;;-0.30;99.90;;;;;;5034036;28;20540;-77
2021/04/16 04:03:22;;;;;;;11.27;10.33;;;-0.30;99.90;;;;;;5036833;28;20446;-77
2021/04/16 04:05:48;;;;;;;12.13;11.13;;;-0.40;99.90;;;;;;5043132;28;20441;-77
2021/04/16 04:08:14;;;;;;;11.80;10.80;;;-0.40;99.90;;;;;;5033399;28;20439;-77
2021/04/16 04:10:40;;;;;;;12.60;11.33;;;-0.40;99.90;;;;;;5039501;28;20430;-78
2021/04/16 04:13:08;;;;;;;12.07;11.00;;;-0.30;99.90;;;;;;5034391;28;20442;-77
2021/04/16 04:15:35;;;;;;;12.63;11.47;;;-0.30;99.90;;;;;;5034780;28;21032;-78
2021/04/16 04:18:04;;;;;;;13.60;12.17;;;-0.30;99.90;;;;;;5041586;28;20430;-77
2021/04/16 04:20:32;;;;;;;13.13;11.97;;;-0.30;99.90;;;;;;5040159;28;20444;-78
2021/04/16 04:23:00;;;;;;;12.50;11.50;;;-0.30;99.90;;;;;;5032741;28;20485;-77
2021/04/16 04:25:28;;;;;;;13.20;12.10;;;-0.40;99.90;;;;;;5038033;28;20457;-77
2021/04/16 04:27:55;;;;;;;13.60;12.40;;;-0.40;99.90;;;;;;5038725;28;20457;-78
2021/04/16 04:30:26;;;;;;;13.40;12.20;;;-0.40;99.90;;;;;;5032908;28;20528;-78
2021/04/16 04:32:52;;;;;;;13.97;12.77;;;-0.50;99.90;;;;;;5038196;28;20465;-77
2021/04/16 04:35:20;;;;;;;12.33;11.23;;;-0.40;99.90;;;;;;5038416;28;20488;-78
2021/04/16 04:37:46;;;;;;;13.73;12.43;;;-0.40;99.90;;;;;;5035869;28;20472;-78
2021/04/16 04:40:16;;;;;;;13.27;12.07;;;-0.40;99.90;;;;;;5039122;28;20431;-78
2021/04/16 04:42:43;;;;;;;13.03;11.83;;;-0.40;99.90;;;;;;5033143;28;20442;-77
2021/04/16 04:45:10;;;;;;;13.27;12.17;;;-0.40;99.90;;;;;;5038126;28;20459;-77
2021/04/16 04:47:36;;;;;;;14.13;12.83;;;-0.40;99.90;;;;;;5034206;28;20439;-78
2021/04/16 04:50:04;;;;;;;13.13;12.03;;;-0.50;99.90;;;;;;5032981;28;20514;-77
2021/04/16 04:52:33;;;;;;;14.53;13.13;;;-0.50;99.90;;;;;;5038598;28;20462;-77
2021/04/16 04:55:02;;;;;;;13.87;12.67;;;-0.50;99.90;;;;;;5040294;28;20475;-77
2021/04/16 04:57:30;;;;;;;13.80;12.53;;;-0.50;99.90;;;;;;5037801;28;20970;-75
2021/04/16 04:59:56;;;;;;;13.90;12.60;;;-0.50;99.90;;;;;;5027292;28;20517;-77
2021/04/16 05:02:24;;;;;;;14.37;12.97;;;-0.50;99.90;;;;;;5035236;28;20439;-77
2021/04/16 05:04:52;;;;;;;13.47;12.27;;;-0.40;99.90;;;;;;5033284;28;20458;-77
2021/04/16 05:07:18;;;;;;;15.27;13.70;;;-0.40;99.90;;;;;;5032158;28;20449;-77
2021/04/16 05:09:45;;;;;;;12.87;11.67;;;-0.30;99.90;;;;;;5040172;28;20505;-77
2021/04/16 05:12:12;;;;;;;13.77;12.40;;;-0.30;99.90;;;;;;5040774;28;20423;-76
2021/04/16 05:14:39;;;;;;;12.47;11.20;;;-0.20;99.90;;;;;;5039180;28;20462;-77
2021/04/16 05:17:06;;;;;;;13.00;11.77;;;-0.20;99.90;;;;;;5039184;28;20431;-77
2021/04/16 05:19:33;;;;;;;12.77;11.63;;;-0.10;99.90;;;;;;5045205;28;20430;-77
2021/04/16 05:22:01;;;;;;;13.67;12.47;;;0.00;99.90;;;;;;5039621;28;20447;-77
2021/04/16 05:24:37;;;;;;;14.83;13.53;;;0.10;99.90;;;;;;5115455;27;21119;-76
2021/04/16 05:27:06;;;;;;;14.33;12.97;;;0.20;99.90;;;;;;5092028;28;20942;-77
2021/04/16 05:29:33;;;;;;;12.80;11.73;;;0.40;99.90;;;;;;5080775;28;20970;-77
2021/04/16 05:32:00;;;;;;;13.20;11.90;;;0.70;99.90;;;;;;5082768;28;20435;-77
2021/04/16 05:34:27;;;;;;;14.23;12.93;;;1.20;99.90;;;;;;5078242;28;20453;-77
2021/04/16 05:36:53;;;;;;;14.43;12.93;;;1.60;99.90;;;;;;5094615;22;20498;-76
2021/04/16 05:39:20;;;;;;;14.07;12.87;;;1.90;99.90;;;;;;5041100;28;20461;-76
2021/04/16 05:41:48;;;;;;;14.17;12.80;;;2.20;99.90;;;;;;5030467;28;20473;-77
2021/04/16 05:44:14;;;;;;;14.30;12.53;;;2.50;99.90;;;;;;5037527;28;20530;-76
2021/04/16 05:46:41;;;;;;;13.93;12.70;;;2.70;99.90;;;;;;5027649;28;20486;-77
2021/04/16 05:49:08;;;;;;;13.43;12.13;;;2.80;99.90;;;;;;5048479;28;20449;-76
2021/04/16 05:51:35;;;;;;;13.77;12.43;;;2.90;99.90;;;;;;5030301;28;20449;-76
2021/04/16 05:54:01;;;;;;;12.90;11.70;;;2.80;99.90;;;;;;5047844;28;20426;-76
2021/04/16 05:56:28;;;;;;;13.10;10.60;;;2.70;99.90;;;;;;5048207;28;21032;-77
2021/04/16 05:58:55;;;;;;;10.60;8.33;;;2.70;99.90;;;;;;5047850;28;20451;-76
2021/04/16 06:01:21;;;;;;;9.33;6.97;;;2.70;99.90;;;;;;5048647;28;20421;-77
2021/04/16 06:03:49;;;;;;;9.20;7.00;;;2.80;99.90;;;;;;5029830;28;20485;-76
2021/04/16 06:06:15;;;;;;;8.37;6.90;;;2.80;99.90;;;;;;5032179;28;20462;-81
2021/04/16 06:08:43;;;;;;;8.70;6.50;;;2.90;99.90;;;;;;5033065;28;20462;-79
2021/04/16 06:11:09;;;;;;;8.80;6.43;;;3.00;99.90;;;;;;5051321;28;20483;-78
2021/04/16 06:13:37;;;;;;;9.80;7.00;;;3.30;99.90;;;;;;5032822;28;20831;-79
2021/04/16 06:16:06;;;;;;;8.73;6.80;;;3.50;99.90;;;;;;5032665;28;20454;-78
2021/04/16 06:18:32;;;;;;;8.30;6.53;;;3.80;99.90;;;;;;5033679;28;20462;-79
2021/04/16 06:20:58;;;;;;;10.97;9.87;;;3.90;99.90;;;;;;5050988;28;20434;-78
2021/04/16 06:23:25;;;;;;;10.53;9.53;;;3.90;99.90;;;;;;5051131;28;20472;-78
2021/04/16 06:25:51;;;;;;;10.90;8.80;;;4.00;99.90;;;;;;5050264;28;20437;-78
2021/04/16 06:28:19;;;;;;;8.17;6.20;;;4.00;99.90;;;;;;5044605;28;20246;-78
2021/04/16 06:30:45;;;;;;;10.80;6.63;;;4.00;99.90;;;;;;5045536;28;20204;-78
2021/04/16 06:33:24;;;;;;;8.00;6.40;;;4.20;99.90;;;;;;5044445;28;20191;-78
2021/04/16 06:35:53;;;;;;;10.63;9.63;;;4.20;99.90;;;;;;5031590;28;20192;-78
2021/04/16 06:38:24;;;;;;;10.33;9.47;;;4.30;99.90;;;;;;5031317;28;20231;-78
2021/04/16 06:40:52;;;;;;;9.13;8.23;;;4.30;99.90;;;;;;5037197;28;20640;-78
2021/04/16 06:43:22;;;;;;;9.43;8.43;;;4.50;99.90;;;;;;5037087;28;20211;-78
2021/04/16 06:45:53;;;;;;;9.17;5.63;;;4.60;99.90;;;;;;5030760;28;20200;-77
2021/04/16 06:48:21;;;;;;;9.57;6.57;;;4.80;99.90;;;;;;5035216;28;20211;-78
2021/04/16 06:50:47;;;;;;;7.43;5.97;;;4.90;99.90;;;;;;5037777;28;20196;-78
2021/04/16 06:53:19;;;;;;;6.60;5.67;;;4.90;99.90;;;;;;5030799;28;20192;-79
2021/04/16 06:55:57;;;;;;;9.63;8.17;;;5.20;99.90;;;;;;5038055;28;20192;-78
2021/04/16 06:58:28;;;;;;;8.93;8.20;;;5.20;99.90;;;;;;5034019;28;20216;-79
2021/04/16 07:01:06;;;;;;;8.80;4.93;;;5.30;99.90;;;;;;5033590;28;20202;-79
2021/04/16 07:03:36;;;;;;;7.97;5.67;;;5.60;99.90;;;;;;5037300;28;20263;-79
2021/04/16 07:06:08;;;;;;;14.43;7.00;;;5.80;99.90;;;;;;5035550;28;20192;-77
2021/04/16 07:08:37;;;;;;;6.63;5.47;;;5.80;99.90;;;;;;5017610;28;20200;-78
2021/04/16 07:11:14;;;;;;;5.97;5.17;;;6.00;99.90;;;;;;5035591;28;20555;-77
2021/04/16 07:13:40;;;;;;;6.57;5.37;;;5.40;99.90;;;;;;5018789;28;20700;-78
2021/04/16 07:16:07;;;;;;;6.97;4.60;;;5.40;99.90;;;;;;5037812;28;20246;-76
2021/04/16 07:18:38;;;;;;;8.67;6.67;;;6.00;99.90;;;;;;5032052;28;20197;-77
2021/04/16 07:21:07;;;;;;;8.63;7.73;;;6.40;99.90;;;;;;5015467;28;20698;-77
2021/04/16 07:23:42;;;;;;;9.67;7.03;;;6.80;99.90;;;;;;5033044;28;20240;-77
2021/04/16 07:26:19;;;;;;;8.43;7.70;;;6.50;99.90;;;;;;5033147;28;20193;-77
2021/04/16 07:28:49;;;;;;;8.50;7.70;;;6.90;99.90;;;;;;5015109;28;20258;-77
2021/04/16 07:31:27;;;;;;;8.53;7.80;;;7.30;99.90;;;;;;5021214;28;20268;-77
2021/04/16 07:33:55;;;;;;;8.00;5.70;;;7.90;99.90;;;;;;5015345;28;20206;-76
2021/04/16 07:36:29;;;;;;;7.33;6.60;;;7.80;99.90;;;;;;5033022;28;20213;-76
2021/04/16 07:39:06;;;;;;;7.40;6.70;;;7.70;99.90;;;;;;5032731;28;20404;-77
2021/04/16 07:41:37;;;;;;;8.17;7.47;;;7.60;99.90;;;;;;5015015;28;20209;-77
2021/04/16 07:44:04;;;;;;;7.43;6.73;;;7.90;99.90;;;;;;5015132;28;20571;-76
2021/04/16 07:46:36;;;;;;;8.33;7.33;;;8.00;99.90;;;;;;5014000;28;20719;-76
2021/04/16 07:49:23;;;;;;;9.70;7.33;;;8.00;99.90;;;;;;5026884;28;20282;-77
2021/04/16 07:51:52;;;;;;;9.10;7.00;;;7.80;99.90;;;;;;5032564;28;20199;-77
2021/04/16 07:54:20;;;;;;;7.80;7.10;;;8.10;99.90;;;;;;5016654;28;20781;-76
2021/04/16 07:56:48;;;;;;;6.83;6.23;;;7.90;99.90;;;;;;5034561;28;20216;-77
2021/04/16 07:59:17;;;;;;;6.87;6.20;;;7.80;99.90;;;;;;5031982;28;20894;-77
2021/04/16 08:01:45;;;;;;;8.57;6.43;;;8.20;99.90;;;;;;5034566;28;20199;-78
2021/04/16 08:04:28;;;;;;;7.93;7.20;;;8.60;99.90;;;;;;5022294;28;20215;-78
2021/04/16 08:07:14;;;;;;;7.70;7.07;;;8.30;99.90;;;;;;5034447;28;20212;-78
2021/04/16 08:09:41;;;;;;;8.00;7.20;;;8.80;99.90;;;;;;5015797;28;20200;-77
2021/04/16 08:12:13;;;;;;;7.83;7.13;;;8.30;99.90;;;;;;5016422;28;20196;-77
2021/04/16 08:14:42;;;;;;;6.70;6.00;;;7.90;99.90;;;;;;5023924;28;20230;-77
2021/04/16 08:17:17;;;;;;;7.60;6.90;;;7.60;99.90;;;;;;5021275;28;20216;-76
2021/04/16 08:19:45;;;;;;;7.97;7.17;;;8.00;99.90;;;;;;5024543;28;20202;-77
2021/04/16 08:22:15;;;;;;;6.80;6.10;;;8.10;99.90;;;;;;5033361;28;20584;-78
2021/04/16 08:24:49;;;;;;;8.77;6.93;;;8.20;99.90;;;;;;5024090;28;20219;-77
2021/04/16 08:27:32;;;;;;;8.60;6.67;;;8.10;99.90;;;;;;5031537;28;20222;-77
2021/04/16 08:30:06;;;;;;;7.10;6.03;;;8.10;99.90;;;;;;5030426;28;20210;-77
2021/04/16 08:32:36;;;;;;;7.67;6.93;;;8.10;99.90;;;;;;5033385;28;20199;-77
2021/04/16 08:35:09;;;;;;;8.13;7.43;;;8.10;99.90;;;;;;5033512;28;20199;-77
2021/04/16 08:37:41;;;;;;;8.00;7.20;;;8.00;99.90;;;;;;5015663;28;20231;-77
2021/04/16 08:40:12;;;;;;;7.87;6.93;;;7.70;99.90;;;;;;5016080;28;20261;-77
2021/04/16 08:42:38;;;;;;;7.67;6.97;;;7.80;99.90;;;;;;5033528;28;20291;-77
2021/04/16 08:45:09;;;;;;;7.90;7.20;;;8.00;99.90;;;;;;5015676;28;20196;-77
2021/04/16 08:47:47;;;;;;;5.43;4.43;;;8.00;99.90;;;;;;5015473;28;20702;-77
2021/04/16 08:50:14;;;;;;;4.00;3.60;;;7.80;99.90;;;;;;5015529;28;20200;-77
2021/04/16 08:52:45;;;;;;;7.13;4.40;;;7.80;99.90;;;;;;5032531;28;20242;-77
2021/04/16 08:55:19;;;;;;;7.10;6.50;;;7.60;99.90;;;;;;5015082;28;20203;-77
2021/04/16 08:57:51;;;;;;;7.83;7.13;;;7.50;99.90;;;;;;5014461;28;20226;-77
2021/04/16 09:00:22;;;;;;;7.70;7.00;;;7.40;99.90;;;;;;5032547;28;20573;-78
2021/04/16 09:02:51;;;;;;;7.10;6.50;;;7.30;99.90;;;;;;5031335;28;20207;-77
2021/04/16 09:05:23;;;;;;;7.40;6.80;;;7.30;99.90;;;;;;5032848;28;20202;-78
2021/04/16 09:07:56;;;;;;;7.77;7.07;;;7.40;99.90;;;;;;5033161;28;20219;-76
2021/04/16 09:10:51;;;;;;;7.37;6.73;;;7.30;99.90;;;;;;5014115;28;20226;-77
2021/04/16 09:13:57;;;;;;;7.70;7.10;;;7.50;99.90;;;;;;5032581;28;20187;-76
2021/04/16 09:16:55;;;;;;;7.90;7.20;;;7.60;99.90;;;;;;5027835;28;20215;-77
2021/04/16 09:19:56;;;;;;;4.23;3.67;;;7.70;99.90;;;;;;5014706;28;20199;-77
2021/04/16 09:22:42;;;;;;;5.40;4.23;;;7.70;99.90;;;;;;5031570;28;20663;-77
2021/04/16 09:25:39;;;;;;;4.77;3.73;;;7.70;99.90;;;;;;5023621;28;20215;-78
2021/04/16 09:28:35;;;;;;;7.17;6.47;;;7.70;99.90;;;;;;5024747;28;20216;-77
2021/04/16 09:31:20;;;;;;;7.33;6.70;;;8.00;99.90;;;;;;5038557;28;20258;-77
2021/04/16 09:33:46;;;;;;;7.20;6.50;;;8.00;99.90;;;;;;5013421;28;20223;-77
2021/04/16 09:36:43;;;;;;;7.53;6.93;;;8.20;99.90;;;;;;5031044;28;20202;-77
2021/04/16 09:39:13;;;;;;;9.50;8.60;;;8.10;99.90;;;;;;5009711;28;20573;-77
2021/04/16 09:41:41;;;;;;;9.30;8.40;;;8.40;99.90;;;;;;5030810;28;20582;-77
2021/04/16 09:44:47;;;;;;;9.23;8.43;;;8.20;99.90;;;;;;5013554;28;20227;-77
2021/04/16 09:47:55;;;;;;;8.70;7.90;;;8.40;99.90;;;;;;5024609;28;20230;-77
2021/04/16 09:50:30;;;;;;;9.07;8.27;;;8.60;99.90;;;;;;5004349;28;20195;-76
2021/04/16 09:53:13;;;;;;;9.67;8.90;;;8.60;99.90;;;;;;5019441;28;20594;-76
2021/04/16 09:56:15;;;;;;;9.27;8.67;;;8.30;99.90;;;;;;5011211;28;20211;-77
2021/04/16 09:59:26;;;;;;;9.60;8.80;;;8.40;99.90;;;;;;5028307;28;20683;-77
2021/04/16 10:02:37;;;;;;;9.20;8.50;;;8.70;99.90;;;;;;5013338;28;20378;-77
2021/04/16 10:05:29;;;;;;;9.50;8.80;;;9.30;99.90;;;;;;5014072;28;20226;-77
2021/04/16 10:07:58;;;;;;;8.50;7.80;;;9.70;99.90;;;;;;5013734;28;20598;-78
2021/04/16 10:10:34;;;;;;;7.30;6.70;;;9.40;99.90;;;;;;5034282;28;20682;-77
2021/04/16 10:13:05;;;;;;;7.53;6.90;;;9.70;99.90;;;;;;5017848;28;20210;-78
2021/04/16 10:15:37;;;;;;;7.50;6.77;;;9.90;99.90;;;;;;5036221;28;20578;-78
2021/04/16 10:18:11;;;;;;;9.20;8.40;;;9.90;99.90;;;;;;5007810;28;20271;-77
2021/04/16 10:20:41;;;;;;;9.00;8.30;;;9.50;99.90;;;;;;5017653;28;20204;-78
2021/04/16 10:23:19;;;;;;;8.90;8.20;;;9.00;99.90;;;;;;5035757;28;20239;-77
2021/04/16 12:38:48;;;;;;;7.67;7.07;;;7.70;99.90;;;;;;5099855;28;20252;-79
2021/04/16 12:41:18;;;;;;;7.30;6.70;;;7.50;99.90;;;;;;5101011;28;20205;-78
2021/04/16 12:43:45;;;;;;;7.13;6.50;;;7.70;99.90;;;;;;5111410;28;20709;-79
2021/04/16 12:46:16;;;;;;;6.93;6.33;;;7.90;99.90;;;;;;5103558;28;20193;-79
2021/04/16 12:48:43;;;;;;;7.07;6.57;;;7.80;99.90;;;;;;5100858;28;20212;-77
2021/04/16 12:51:09;;;;;;;7.57;6.97;;;7.80;99.90;;;;;;5098528;28;20313;-79
2021/04/16 12:53:35;;;;;;;7.10;6.50;;;7.70;99.90;;;;;;5102877;28;20197;-79
2021/04/16 12:56:03;;;;;;;6.70;6.13;;;7.60;99.90;;;;;;5112452;28;20262;-78
2021/04/16 12:58:32;;;;;;;7.30;6.57;;;7.70;99.90;;;;;;5109400;28;20227;-78
2021/04/16 13:01:01;;;;;;;10.97;6.80;;;7.70;99.90;;;;;;5106188;28;20197;-78
2021/04/16 13:03:33;;;;;;;8.77;7.10;;;7.80;99.90;;;;;;5095916;28;20225;-78
2021/04/16 13:06:01;;;;;;;7.60;6.90;;;7.60;99.90;;;;;;5091939;28;20196;-78
2021/04/16 13:08:27;;;;;;;7.87;7.07;;;7.70;99.90;;;;;;5096108;28;20225;-78
2021/04/16 13:10:54;;;;;;;7.30;6.57;;;7.60;99.90;;;;;;5108811;28;20192;-76
2021/04/16 13:13:20;;;;;;;7.20;6.60;;;7.90;99.90;;;;;;5109704;28;20187;-80
2021/04/16 13:15:48;;;;;;;7.00;6.30;;;7.90;99.90;;;;;;5112418;28;20204;-77
2021/04/16 13:18:18;;;;;;;7.53;6.87;;;8.00;99.90;;;;;;5103880;28;20224;-80
2021/04/16 13:20:48;;;;;;;6.90;6.20;;;8.00;99.90;;;;;;5102092;28;20246;-78
2021/04/16 13:23:14;;;;;;;6.23;5.73;;;7.90;99.90;;;;;;5100755;28;20216;-77
2021/04/16 13:25:41;;;;;;;6.47;5.87;;;8.00;99.90;;;;;;5105889;28;20688;-78
2021/04/16 13:28:07;;;;;;;7.10;6.50;;;7.90;99.90;;;;;;5108430;28;20216;-78
2021/04/16 13:30:33;;;;;;;7.33;6.73;;;7.80;99.90;;;;;;5110020;28;20199;-78
2021/04/16 13:33:02;;;;;;;7.37;6.77;;;7.80;99.90;;;;;;5109010;28;20671;-78
2021/04/16 13:35:32;;;;;;;7.47;6.80;;;7.50;99.90;;;;;;5096942;28;20725;-77
2021/04/16 13:38:03;;;;;;;7.87;7.23;;;7.50;99.90;;;;;;5099281;28;20231;-78
2021/04/16 13:40:29;;;;;;;7.77;7.07;;;7.30;99.90;;;;;;5106768;28;20200;-78
2021/04/16 13:42:55;;;;;;;7.80;7.10;;;7.30;99.90;;;;;;5101019;28;20195;-78
2021/04/16 13:45:22;;;;;;;8.00;7.30;;;7.40;99.90;;;;;;5095194;28;20195;-78
2021/04/16 13:47:48;;;;;;;8.17;7.47;;;7.50;99.90;;;;;;5097654;28;20215;-78
2021/04/16 13:50:17;;;;;;;7.73;7.03;;;7.50;99.90;;;;;;5097829;28;20197;-79
2021/04/16 13:52:44;;;;;;;7.77;7.07;;;7.50;99.90;;;;;;5102742;28;20203;-78
2021/04/16 13:55:13;;;;;;;7.73;7.03;;;7.50;99.90;;;;;;5115131;28;20192;-78
2021/04/16 13:57:40;;;;;;;6.63;4.90;;;7.40;99.90;;;;;;5101726;28;20725;-78
2021/04/16 14:00:09;;;;;;;5.80;4.90;;;7.20;99.90;;;;;;5109225;28;20226;-78
2021/04/16 14:02:40;;;;;;;6.10;5.60;;;7.20;99.90;;;;;;5112888;28;20195;-78
2021/04/16 14:05:08;;;;;;;8.10;7.00;;;7.10;99.90;;;;;;5100887;28;20687;-78
2021/04/16 14:07:35;;;;;;;7.30;6.70;;;7.10;99.90;;;;;;5097238;27;20224;-78
2021/04/16 14:10:02;;;;;;;7.97;7.27;;;7.10;99.90;;;;;;5115428;28;20277;-79
2021/04/16 14:12:29;;;;;;;6.73;5.10;;;7.10;99.90;;;;;;5119243;28;20203;-77
2021/04/16 14:14:57;;;;;;;6.03;5.43;;;7.00;99.90;;;;;;5114292;28;20190;-78
2021/04/16 14:17:27;;;;;;;6.73;6.13;;;7.00;99.90;;;;;;5107351;28;20314;-78
2021/04/16 14:20:00;;;;;;;6.70;6.10;;;6.90;99.90;;;;;;5101864;28;20589;-78
2021/04/16 14:22:31;;;;;;;8.87;7.97;;;7.00;99.90;;;;;;5103333;28;20668;-77
2021/04/16 14:24:57;;;;;;;7.97;7.27;;;6.90;99.90;;;;;;5109594;28;20214;-77
2021/04/16 14:27:24;;;;;;;8.03;7.33;;;7.00;99.90;;;;;;5109645;28;20719;-77
2021/04/16 14:29:52;;;;;;;7.50;6.90;;;6.90;99.90;;;;;;5112843;28;20200;-77
2021/04/16 14:32:21;;;;;;;7.77;7.10;;;7.00;99.90;;;;;;5112714;28;20251;-78
2021/04/16 14:34:48;;;;;;;7.67;7.00;;;7.00;99.90;;;;;;5105896;28;20642;-78
2021/04/16 14:37:14;;;;;;;7.60;7.00;;;7.10;99.90;;;;;;5099607;28;20231;-77
2021/04/16 14:39:40;;;;;;;7.03;6.43;;;7.10;99.90;;;;;;5102850;28;20194;-78
2021/04/16 14:42:07;;;;;;;5.87;5.30;;;7.30;99.90;;;;;;5104012;28;20212;-77
2021/04/16 14:44:33;;;;;;;6.67;5.33;;;7.40;99.90;;;;;;5105730;28;20230;-77
2021/04/16 14:47:00;;;;;;;5.53;5.13;;;7.40;99.90;;;;;;5103536;28;20698;-78
2021/04/16 14:49:30;;;;;;;6.40;5.80;;;7.30;99.90;;;;;;5113744;28;20691;-77
2021/04/16 14:51:59;;;;;;;7.03;6.33;;;7.30;99.90;;;;;;5108044;28;20265;-77
2021/04/16 14:54:37;;;;;;;6.40;5.80;;;7.30;99.90;;;;;;5111792;28;20213;-77
2021/04/16 14:57:07;;;;;;;6.23;5.67;;;7.50;99.90;;;;;;5107425;28;20217;-78
2021/04/16 14:59:37;;;;;;;6.57;6.00;;;7.50;99.90;;;;;;5106576;28;20203;-78
2021/04/16 15:02:05;;;;;;;7.30;6.70;;;7.60;99.90;;;;;;5099785;28;20196;-79
2021/04/16 15:04:31;;;;;;;8.20;7.50;;;7.60;99.90;;;;;;5110600;28;20757;-77
2021/04/16 15:07:01;;;;;;;7.40;6.80;;;7.40;99.90;;;;;;5108390;28;20208;-78
2021/04/16 15:09:35;;;;;;;7.70;7.00;;;7.40;99.90;;;;;;5110629;28;20200;-78
2021/04/16 15:12:02;;;;;;;7.43;6.73;;;7.60;99.90;;;;;;5109736;28;20680;-78
2021/04/16 15:14:30;;;;;;;7.40;6.60;;;7.60;99.90;;;;;;5112260;28;20195;-78